sensor_id;sensor_type;location;lat;lon;timestamp;temperature;humidity
51557;DHT22;38766;53.194;5.532;2023-04-25T00:00:26;7.80;99.90
51557;DHT22;38766;53.194;5.532;2023-04-25T00:02:51;7.70;99.90
51557;DHT22;38766;53.194;5.532;2023-04-25T00:05:17;7.80;99.90
51557;DHT22;38766;53.194;5.532;2023-04-25T00:07:43;7.70;99.90
51557;DHT22;38766;53.194;5.532;2023-04-25T00:10:09;7.70;99.90
51557;DHT22;38766;53.194;5.532;2023-04-25T00:12:36;7.60;99.90
51557;DHT22;38766;53.194;5.532;2023-04-25T00:15:02;7.60;99.90
51557;DHT22;38766;53.194;5.532;2023-04-25T00:17:28;7.60;99.90
51557;DHT22;38766;53.194;5.532;2023-04-25T00:19:54;7.60;99.90
51557;DHT22;38766;53.194;5.532;2023-04-25T00:22:21;7.50;99.90
51557;DHT22;38766;53.194;5.532;2023-04-25T00:24:47;7.60;99.90
51557;DHT22;38766;53.194;5.532;2023-04-25T00:27:12;7.50;99.90
51557;DHT22;38766;53.194;5.532;2023-04-25T00:29:38;7.40;99.90
51557;DHT22;38766;53.194;5.532;2023-04-25T00:32:03;7.40;99.90
51557;DHT22;38766;53.194;5.532;2023-04-25T00:34:29;7.40;99.90
51557;DHT22;38766;53.194;5.532;2023-04-25T00:36:55;7.30;99.90
51557;DHT22;38766;53.194;5.532;2023-04-25T00:39:22;7.30;99.90
51557;DHT22;38766;53.194;5.532;2023-04-25T00:41:48;7.40;99.90
51557;DHT22;38766;53.194;5.532;2023-04-25T00:44:15;7.40;99.90
51557;DHT22;38766;53.194;5.532;2023-04-25T00:46:42;7.40;99.90
51557;DHT22;38766;53.194;5.532;2023-04-25T00:49:08;7.40;99.90
51557;DHT22;38766;53.194;5.532;2023-04-25T00:51:39;7.40;99.90
51557;DHT22;38766;53.194;5.532;2023-04-25T00:54:04;7.50;99.90
51557;DHT22;38766;53.194;5.532;2023-04-25T00:56:30;7.50;99.90
51557;DHT22;38766;53.194;5.532;2023-04-25T00:58:56;7.40;99.90
51557;DHT22;38766;53.194;5.532;2023-04-25T01:01:22;7.50;99.90
51557;DHT22;38766;53.194;5.532;2023-04-25T01:03:49;7.40;99.90
51557;DHT22;38766;53.194;5.532;2023-04-25T01:06:16;7.30;99.90
51557;DHT22;38766;53.194;5.532;2023-04-25T01:08:42;7.30;99.90
51557;DHT22;38766;53.194;5.532;2023-04-25T01:11:07;7.20;99.90
51557;DHT22;38766;53.194;5.532;2023-04-25T01:13:34;7.20;99.90
51557;DHT22;38766;53.194;5.532;2023-04-25T01:16:00;7.10;99.90
51557;DHT22;38766;53.194;5.532;2023-04-25T01:18:26;7.20;99.90
51557;DHT22;38766;53.194;5.532;2023-04-25T01:20:52;7.20;99.90
51557;DHT22;38766;53.194;5.532;2023-04-25T01:23:20;7.20;99.90
51557;DHT22;38766;53.194;5.532;2023-04-25T01:25:47;7.20;99.90
51557;DHT22;38766;53.194;5.532;2023-04-25T01:28:13;7.10;99.90
51557;DHT22;38766;53.194;5.532;2023-04-25T01:30:39;7.20;99.90
51557;DHT22;38766;53.194;5.532;2023-04-25T01:33:07;7.20;99.90
51557;DHT22;38766;53.194;5.532;2023-04-25T01:35:33;7.20;99.90
51557;DHT22;38766;53.194;5.532;2023-04-25T01:37:59;7.20;99.90
51557;DHT22;38766;53.194;5.532;2023-04-25T01:40:26;7.20;99.90
51557;DHT22;38766;53.194;5.532;2023-04-25T01:42:53;7.20;99.90
51557;DHT22;38766;53.194;5.532;2023-04-25T01:45:18;7.10;99.90
51557;DHT22;38766;53.194;5.532;2023-04-25T01:47:45;7.10;99.90
51557;DHT22;38766;53.194;5.532;2023-04-25T01:50:15;7.10;99.90
51557;DHT22;38766;53.194;5.532;2023-04-25T01:52:41;6.90;99.90
51557;DHT22;38766;53.194;5.532;2023-04-25T01:55:06;6.90;99.90
51557;DHT22;38766;53.194;5.532;2023-04-25T01:57:32;6.70;99.90
51557;DHT22;38766;53.194;5.532;2023-04-25T02:00:00;6.70;99.90
51557;DHT22;38766;53.194;5.532;2023-04-25T02:02:26;6.60;99.90
51557;DHT22;38766;53.194;5.532;2023-04-25T02:04:52;6.60;99.90
51557;DHT22;38766;53.194;5.532;2023-04-25T02:07:17;6.60;99.90
51557;DHT22;38766;53.194;5.532;2023-04-25T02:09:43;6.60;99.90
51557;DHT22;38766;53.194;5.532;2023-04-25T02:12:10;6.50;99.90
51557;DHT22;38766;53.194;5.532;2023-04-25T02:14:36;6.50;99.90
51557;DHT22;38766;53.194;5.532;2023-04-25T02:17:02;6.60;99.90
51557;DHT22;38766;53.194;5.532;2023-04-25T02:19:28;6.60;99.90
51557;DHT22;38766;53.194;5.532;2023-04-25T02:21:53;6.70;99.90
51557;DHT22;38766;53.194;5.532;2023-04-25T02:24:20;6.60;99.90
51557;DHT22;38766;53.194;5.532;2023-04-25T02:26:45;6.60;99.90
51557;DHT22;38766;53.194;5.532;2023-04-25T02:29:12;6.70;99.90
51557;DHT22;38766;53.194;5.532;2023-04-25T02:31:38;6.80;99.90
51557;DHT22;38766;53.194;5.532;2023-04-25T02:34:03;6.80;99.90
51557;DHT22;38766;53.194;5.532;2023-04-25T02:36:30;6.90;99.90
51557;DHT22;38766;53.194;5.532;2023-04-25T02:38:59;6.80;99.90
51557;DHT22;38766;53.194;5.532;2023-04-25T02:41:25;6.90;99.90
51557;DHT22;38766;53.194;5.532;2023-04-25T02:43:51;6.90;99.90
51557;DHT22;38766;53.194;5.532;2023-04-25T02:46:17;7.00;99.90
51557;DHT22;38766;53.194;5.532;2023-04-25T02:48:42;6.80;99.90
51557;DHT22;38766;53.194;5.532;2023-04-25T02:51:09;6.80;99.90
51557;DHT22;38766;53.194;5.532;2023-04-25T02:53:34;6.70;99.90
51557;DHT22;38766;53.194;5.532;2023-04-25T02:56:00;6.70;99.90
51557;DHT22;38766;53.194;5.532;2023-04-25T02:58:27;6.70;99.90
51557;DHT22;38766;53.194;5.532;2023-04-25T03:00:53;6.70;99.90
51557;DHT22;38766;53.194;5.532;2023-04-25T03:03:18;6.60;99.90
51557;DHT22;38766;53.194;5.532;2023-04-25T03:05:50;6.60;99.90
51557;DHT22;38766;53.194;5.532;2023-04-25T03:08:16;6.60;99.90
51557;DHT22;38766;53.194;5.532;2023-04-25T03:10:42;6.60;99.90
51557;DHT22;38766;53.194;5.532;2023-04-25T03:13:08;6.60;99.90
51557;DHT22;38766;53.194;5.532;2023-04-25T03:15:35;6.70;99.90
51557;DHT22;38766;53.194;5.532;2023-04-25T03:18:01;6.70;99.90
51557;DHT22;38766;53.194;5.532;2023-04-25T03:20:27;6.70;99.90
51557;DHT22;38766;53.194;5.532;2023-04-25T03:22:52;6.70;99.90
51557;DHT22;38766;53.194;5.532;2023-04-25T03:25:18;6.70;99.90
51557;DHT22;38766;53.194;5.532;2023-04-25T03:27:44;6.70;99.90
51557;DHT22;38766;53.194;5.532;2023-04-25T03:30:10;6.70;99.90
51557;DHT22;38766;53.194;5.532;2023-04-25T03:32:36;6.80;99.90
51557;DHT22;38766;53.194;5.532;2023-04-25T03:35:02;6.80;99.90
51557;DHT22;38766;53.194;5.532;2023-04-25T03:37:28;6.80;99.90
51557;DHT22;38766;53.194;5.532;2023-04-25T03:39:54;6.80;99.90
51557;DHT22;38766;53.194;5.532;2023-04-25T03:42:19;6.80;99.90
51557;DHT22;38766;53.194;5.532;2023-04-25T03:44:48;6.90;99.90
51557;DHT22;38766;53.194;5.532;2023-04-25T03:47:14;6.80;99.90
51557;DHT22;38766;53.194;5.532;2023-04-25T03:49:40;6.70;99.90
51557;DHT22;38766;53.194;5.532;2023-04-25T03:52:05;6.60;99.90
51557;DHT22;38766;53.194;5.532;2023-04-25T03:54:31;6.70;99.90
51557;DHT22;38766;53.194;5.532;2023-04-25T03:56:57;6.70;99.90
51557;DHT22;38766;53.194;5.532;2023-04-25T03:59:22;6.60;99.90
51557;DHT22;38766;53.194;5.532;2023-04-25T04:01:48;6.60;99.90
51557;DHT22;38766;53.194;5.532;2023-04-25T04:04:13;6.70;99.90
51557;DHT22;38766;53.194;5.532;2023-04-25T04:06:39;6.60;99.90
51557;DHT22;38766;53.194;5.532;2023-04-25T04:09:05;6.70;99.90
51557;DHT22;38766;53.194;5.532;2023-04-25T04:11:34;6.50;99.90
51557;DHT22;38766;53.194;5.532;2023-04-25T04:14:02;6.40;99.90
51557;DHT22;38766;53.194;5.532;2023-04-25T04:16:27;6.40;99.90
51557;DHT22;38766;53.194;5.532;2023-04-25T04:18:53;6.30;99.90
51557;DHT22;38766;53.194;5.532;2023-04-25T04:21:19;6.30;99.90
51557;DHT22;38766;53.194;5.532;2023-04-25T04:23:44;6.30;99.90
51557;DHT22;38766;53.194;5.532;2023-04-25T04:26:11;6.20;99.90
51557;DHT22;38766;53.194;5.532;2023-04-25T04:28:38;6.30;99.90
51557;DHT22;38766;53.194;5.532;2023-04-25T04:31:04;6.20;99.90
51557;DHT22;38766;53.194;5.532;2023-04-25T04:33:29;6.20;99.90
51557;DHT22;38766;53.194;5.532;2023-04-25T04:35:56;6.20;99.90
51557;DHT22;38766;53.194;5.532;2023-04-25T04:38:22;6.20;99.90
51557;DHT22;38766;53.194;5.532;2023-04-25T04:40:48;6.20;99.90
51557;DHT22;38766;53.194;5.532;2023-04-25T04:43:13;6.20;99.90
51557;DHT22;38766;53.194;5.532;2023-04-25T04:45:40;6.20;99.90
51557;DHT22;38766;53.194;5.532;2023-04-25T04:48:06;6.20;99.90
51557;DHT22;38766;53.194;5.532;2023-04-25T04:50:32;6.20;99.90
51557;DHT22;38766;53.194;5.532;2023-04-25T04:53:02;6.30;99.90
51557;DHT22;38766;53.194;5.532;2023-04-25T04:55:27;6.40;99.90
51557;DHT22;38766;53.194;5.532;2023-04-25T04:57:53;6.30;99.90
51557;DHT22;38766;53.194;5.532;2023-04-25T05:00:19;6.30;99.90
51557;DHT22;38766;53.194;5.532;2023-04-25T05:02:46;6.30;99.90
51557;DHT22;38766;53.194;5.532;2023-04-25T05:05:11;6.30;99.90
51557;DHT22;38766;53.194;5.532;2023-04-25T05:07:37;6.40;99.90
51557;DHT22;38766;53.194;5.532;2023-04-25T05:10:03;6.40;99.90
51557;DHT22;38766;53.194;5.532;2023-04-25T05:12:29;6.40;99.90
51557;DHT22;38766;53.194;5.532;2023-04-25T05:14:55;6.40;99.90
51557;DHT22;38766;53.194;5.532;2023-04-25T05:17:21;6.50;99.90
51557;DHT22;38766;53.194;5.532;2023-04-25T05:19:47;6.50;99.90
51557;DHT22;38766;53.194;5.532;2023-04-25T05:22:12;6.60;99.90
51557;DHT22;38766;53.194;5.532;2023-04-25T05:24:38;6.60;99.90
51557;DHT22;38766;53.194;5.532;2023-04-25T05:27:03;6.60;99.90
51557;DHT22;38766;53.194;5.532;2023-04-25T05:29:29;6.60;99.90
51557;DHT22;38766;53.194;5.532;2023-04-25T05:31:55;6.60;99.90
51557;DHT22;38766;53.194;5.532;2023-04-25T05:34:20;6.60;99.90
51557;DHT22;38766;53.194;5.532;2023-04-25T05:36:46;6.50;99.90
51557;DHT22;38766;53.194;5.532;2023-04-25T05:39:17;6.60;99.90
51557;DHT22;38766;53.194;5.532;2023-04-25T05:41:43;6.60;99.90
51557;DHT22;38766;53.194;5.532;2023-04-25T05:44:08;6.60;99.90
51557;DHT22;38766;53.194;5.532;2023-04-25T05:46:34;6.50;99.90
51557;DHT22;38766;53.194;5.532;2023-04-25T05:49:00;6.50;99.90
51557;DHT22;38766;53.194;5.532;2023-04-25T05:51:25;6.50;99.90
51557;DHT22;38766;53.194;5.532;2023-04-25T05:53:51;6.50;99.90
51557;DHT22;38766;53.194;5.532;2023-04-25T05:56:17;6.60;99.90
51557;DHT22;38766;53.194;5.532;2023-04-25T05:58:42;6.60;99.90
51557;DHT22;38766;53.194;5.532;2023-04-25T06:01:08;6.60;99.90
51557;DHT22;38766;53.194;5.532;2023-04-25T06:03:34;6.70;99.90
51557;DHT22;38766;53.194;5.532;2023-04-25T06:06:00;6.70;99.90
51557;DHT22;38766;53.194;5.532;2023-04-25T06:08:26;6.80;99.90
51557;DHT22;38766;53.194;5.532;2023-04-25T06:10:51;6.80;99.90
51557;DHT22;38766;53.194;5.532;2023-04-25T06:13:17;6.90;99.90
51557;DHT22;38766;53.194;5.532;2023-04-25T06:15:43;6.90;99.90
51557;DHT22;38766;53.194;5.532;2023-04-25T06:18:08;6.90;99.90
51557;DHT22;38766;53.194;5.532;2023-04-25T06:20:34;6.90;99.90
51557;DHT22;38766;53.194;5.532;2023-04-25T06:23:00;7.00;99.90
51557;DHT22;38766;53.194;5.532;2023-04-25T06:25:25;7.00;99.90
51557;DHT22;38766;53.194;5.532;2023-04-25T06:27:51;7.10;99.90
51557;DHT22;38766;53.194;5.532;2023-04-25T06:30:17;7.10;99.90
51557;DHT22;38766;53.194;5.532;2023-04-25T06:32:47;7.20;99.90
51557;DHT22;38766;53.194;5.532;2023-04-25T06:35:13;7.20;99.90
51557;DHT22;38766;53.194;5.532;2023-04-25T06:37:38;7.20;99.90
51557;DHT22;38766;53.194;5.532;2023-04-25T06:40:05;7.10;99.90
51557;DHT22;38766;53.194;5.532;2023-04-25T06:42:31;7.00;99.90
51557;DHT22;38766;53.194;5.532;2023-04-25T06:44:56;6.90;99.90
51557;DHT22;38766;53.194;5.532;2023-04-25T06:47:22;6.70;99.90
51557;DHT22;38766;53.194;5.532;2023-04-25T06:49:48;6.60;99.90
51557;DHT22;38766;53.194;5.532;2023-04-25T06:52:13;6.60;99.90
51557;DHT22;38766;53.194;5.532;2023-04-25T06:54:39;6.70;99.90
51557;DHT22;38766;53.194;5.532;2023-04-25T06:57:05;6.60;99.90
51557;DHT22;38766;53.194;5.532;2023-04-25T06:59:30;6.70;99.90
51557;DHT22;38766;53.194;5.532;2023-04-25T07:01:56;6.70;99.90
51557;DHT22;38766;53.194;5.532;2023-04-25T07:04:21;6.70;99.90
51557;DHT22;38766;53.194;5.532;2023-04-25T07:06:47;6.80;99.90
51557;DHT22;38766;53.194;5.532;2023-04-25T07:09:13;6.90;99.90
51557;DHT22;38766;53.194;5.532;2023-04-25T07:11:39;7.00;99.90
51557;DHT22;38766;53.194;5.532;2023-04-25T07:14:05;7.00;99.90
51557;DHT22;38766;53.194;5.532;2023-04-25T07:16:30;7.00;99.90
51557;DHT22;38766;53.194;5.532;2023-04-25T07:18:56;7.00;99.90
51557;DHT22;38766;53.194;5.532;2023-04-25T07:21:21;6.90;99.90
51557;DHT22;38766;53.194;5.532;2023-04-25T07:23:47;6.80;99.90
51557;DHT22;38766;53.194;5.532;2023-04-25T07:26:13;6.80;99.90
51557;DHT22;38766;53.194;5.532;2023-04-25T07:28:38;6.70;99.90
51557;DHT22;38766;53.194;5.532;2023-04-25T07:31:04;6.90;99.90
51557;DHT22;38766;53.194;5.532;2023-04-25T07:33:30;7.00;99.90
51557;DHT22;38766;53.194;5.532;2023-04-25T07:35:56;7.10;99.90
51557;DHT22;38766;53.194;5.532;2023-04-25T07:38:22;7.10;99.90
51557;DHT22;38766;53.194;5.532;2023-04-25T07:40:48;7.10;99.90
51557;DHT22;38766;53.194;5.532;2023-04-25T07:43:14;7.20;99.90
51557;DHT22;38766;53.194;5.532;2023-04-25T07:45:45;7.30;99.90
51557;DHT22;38766;53.194;5.532;2023-04-25T07:48:16;7.30;99.90
51557;DHT22;38766;53.194;5.532;2023-04-25T07:50:41;7.50;99.90
51557;DHT22;38766;53.194;5.532;2023-04-25T07:53:07;7.70;99.90
51557;DHT22;38766;53.194;5.532;2023-04-25T07:55:32;8.00;99.90
51557;DHT22;38766;53.194;5.532;2023-04-25T07:57:58;8.40;99.90
51557;DHT22;38766;53.194;5.532;2023-04-25T08:00:24;8.60;99.90
51557;DHT22;38766;53.194;5.532;2023-04-25T08:02:49;8.90;99.90
51557;DHT22;38766;53.194;5.532;2023-04-25T08:05:16;9.20;99.90
51557;DHT22;38766;53.194;5.532;2023-04-25T08:07:42;9.30;99.90
51557;DHT22;38766;53.194;5.532;2023-04-25T08:10:09;9.40;99.90
51557;DHT22;38766;53.194;5.532;2023-04-25T08:12:35;9.60;99.90
51557;DHT22;38766;53.194;5.532;2023-04-25T08:15:00;9.70;99.90
51557;DHT22;38766;53.194;5.532;2023-04-25T08:17:26;9.90;99.90
51557;DHT22;38766;53.194;5.532;2023-04-25T08:19:52;10.00;99.90
51557;DHT22;38766;53.194;5.532;2023-04-25T08:22:17;10.10;99.90
51557;DHT22;38766;53.194;5.532;2023-04-25T08:24:43;10.10;99.90
51557;DHT22;38766;53.194;5.532;2023-04-25T08:27:09;10.20;99.90
51557;DHT22;38766;53.194;5.532;2023-04-25T08:29:35;10.40;99.90
51557;DHT22;38766;53.194;5.532;2023-04-25T08:32:00;10.60;99.90
51557;DHT22;38766;53.194;5.532;2023-04-25T08:34:26;10.70;99.90
51557;DHT22;38766;53.194;5.532;2023-04-25T08:36:52;10.60;99.90
51557;DHT22;38766;53.194;5.532;2023-04-25T08:39:18;10.50;99.90
51557;DHT22;38766;53.194;5.532;2023-04-25T08:41:44;10.40;99.90
51557;DHT22;38766;53.194;5.532;2023-04-25T08:44:11;10.00;99.90
51557;DHT22;38766;53.194;5.532;2023-04-25T08:46:40;9.70;99.90
51557;DHT22;38766;53.194;5.532;2023-04-25T08:49:07;9.40;99.90
51557;DHT22;38766;53.194;5.532;2023-04-25T08:51:35;9.20;99.90
51557;DHT22;38766;53.194;5.532;2023-04-25T08:54:11;9.00;99.90
51557;DHT22;38766;53.194;5.532;2023-04-25T08:56:48;8.80;99.90
51557;DHT22;38766;53.194;5.532;2023-04-25T08:59:14;8.60;99.90
51557;DHT22;38766;53.194;5.532;2023-04-25T09:01:40;8.30;99.90
51557;DHT22;38766;53.194;5.532;2023-04-25T09:04:06;8.10;99.90
51557;DHT22;38766;53.194;5.532;2023-04-25T09:06:32;7.90;99.90
51557;DHT22;38766;53.194;5.532;2023-04-25T09:09:06;7.60;99.90
51557;DHT22;38766;53.194;5.532;2023-04-25T09:11:33;7.50;99.90
51557;DHT22;38766;53.194;5.532;2023-04-25T09:14:14;7.40;99.90
51557;DHT22;38766;53.194;5.532;2023-04-25T09:19:26;7.30;99.90
51557;DHT22;38766;53.194;5.532;2023-04-25T09:21:58;7.40;99.90
51557;DHT22;38766;53.194;5.532;2023-04-25T09:24:31;7.40;99.90
51557;DHT22;38766;53.194;5.532;2023-04-25T09:26:57;7.60;99.90
51557;DHT22;38766;53.194;5.532;2023-04-25T09:29:34;7.80;99.90
51557;DHT22;38766;53.194;5.532;2023-04-25T09:32:20;7.90;99.90
51557;DHT22;38766;53.194;5.532;2023-04-25T09:39:55;8.50;99.90
51557;DHT22;38766;53.194;5.532;2023-04-25T09:42:25;8.70;99.90
51557;DHT22;38766;53.194;5.532;2023-04-25T09:44:53;9.00;99.90
51557;DHT22;38766;53.194;5.532;2023-04-25T09:47:20;9.10;99.90
51557;DHT22;38766;53.194;5.532;2023-04-25T09:49:47;9.30;99.90
51557;DHT22;38766;53.194;5.532;2023-04-25T09:52:19;9.30;99.90
51557;DHT22;38766;53.194;5.532;2023-04-25T09:54:46;9.40;99.90
51557;DHT22;38766;53.194;5.532;2023-04-25T09:57:14;9.50;99.90
51557;DHT22;38766;53.194;5.532;2023-04-25T09:59:51;9.70;99.90
51557;DHT22;38766;53.194;5.532;2023-04-25T10:02:18;10.00;99.90
51557;DHT22;38766;53.194;5.532;2023-04-25T10:04:49;10.20;99.90
51557;DHT22;38766;53.194;5.532;2023-04-25T10:07:18;10.40;99.90
51557;DHT22;38766;53.194;5.532;2023-04-25T10:09:47;10.60;99.90
51557;DHT22;38766;53.194;5.532;2023-04-25T10:12:13;10.80;99.90
51557;DHT22;38766;53.194;5.532;2023-04-25T10:14:39;10.90;99.90
51557;DHT22;38766;53.194;5.532;2023-04-25T10:17:05;11.10;99.90
51557;DHT22;38766;53.194;5.532;2023-04-25T10:19:32;11.30;99.90
51557;DHT22;38766;53.194;5.532;2023-04-25T10:22:02;11.40;99.90
51557;DHT22;38766;53.194;5.532;2023-04-25T10:24:28;11.60;99.90
51557;DHT22;38766;53.194;5.532;2023-04-25T10:26:56;11.70;99.90
51557;DHT22;38766;53.194;5.532;2023-04-25T10:29:23;11.80;99.90
51557;DHT22;38766;53.194;5.532;2023-04-25T10:31:49;11.90;99.90
51557;DHT22;38766;53.194;5.532;2023-04-25T10:34:16;12.00;99.90
51557;DHT22;38766;53.194;5.532;2023-04-25T10:36:42;11.90;99.90
51557;DHT22;38766;53.194;5.532;2023-04-25T10:39:08;11.70;99.90
51557;DHT22;38766;53.194;5.532;2023-04-25T10:41:51;11.50;99.90
51557;DHT22;38766;53.194;5.532;2023-04-25T10:44:17;11.30;99.90
51557;DHT22;38766;53.194;5.532;2023-04-25T10:46:44;11.00;99.90
51557;DHT22;38766;53.194;5.532;2023-04-25T10:49:11;10.70;99.90
51557;DHT22;38766;53.194;5.532;2023-04-25T10:52:17;10.40;99.90
51557;DHT22;38766;53.194;5.532;2023-04-25T10:54:47;10.20;99.90
51557;DHT22;38766;53.194;5.532;2023-04-25T10:59:59;10.20;99.90
51557;DHT22;38766;53.194;5.532;2023-04-25T11:02:28;10.50;99.90
51557;DHT22;38766;53.194;5.532;2023-04-25T11:04:54;10.80;99.90
51557;DHT22;38766;53.194;5.532;2023-04-25T11:07:33;10.90;99.90
51557;DHT22;38766;53.194;5.532;2023-04-25T11:10:04;11.10;99.90
51557;DHT22;38766;53.194;5.532;2023-04-25T11:12:31;11.20;99.90
51557;DHT22;38766;53.194;5.532;2023-04-25T11:15:05;11.30;99.90
51557;DHT22;38766;53.194;5.532;2023-04-25T11:17:31;11.30;99.90
51557;DHT22;38766;53.194;5.532;2023-04-25T11:19:57;11.40;99.90
51557;DHT22;38766;53.194;5.532;2023-04-25T11:22:23;11.50;99.90
51557;DHT22;38766;53.194;5.532;2023-04-25T11:24:49;11.60;99.90
51557;DHT22;38766;53.194;5.532;2023-04-25T11:27:15;11.80;99.90
51557;DHT22;38766;53.194;5.532;2023-04-25T11:29:41;11.90;99.90
51557;DHT22;38766;53.194;5.532;2023-04-25T11:32:07;12.00;99.90
51557;DHT22;38766;53.194;5.532;2023-04-25T11:34:33;12.00;99.90
51557;DHT22;38766;53.194;5.532;2023-04-25T11:37:00;12.00;99.90
51557;DHT22;38766;53.194;5.532;2023-04-25T11:39:28;12.00;99.90
51557;DHT22;38766;53.194;5.532;2023-04-25T11:41:54;12.10;99.90
51557;DHT22;38766;53.194;5.532;2023-04-25T11:44:21;12.20;99.90
51557;DHT22;38766;53.194;5.532;2023-04-25T11:46:47;12.30;99.90
51557;DHT22;38766;53.194;5.532;2023-04-25T11:49:14;12.30;99.90
51557;DHT22;38766;53.194;5.532;2023-04-25T11:51:45;12.40;99.90
51557;DHT22;38766;53.194;5.532;2023-04-25T11:54:11;12.50;99.90
51557;DHT22;38766;53.194;5.532;2023-04-25T11:56:44;12.60;99.90
51557;DHT22;38766;53.194;5.532;2023-04-25T11:59:09;12.60;99.90
51557;DHT22;38766;53.194;5.532;2023-04-25T12:01:37;12.50;99.90
51557;DHT22;38766;53.194;5.532;2023-04-25T12:04:18;12.20;99.90
51557;DHT22;38766;53.194;5.532;2023-04-25T12:06:46;12.00;99.90
51557;DHT22;38766;53.194;5.532;2023-04-25T12:09:13;11.80;99.90
51557;DHT22;38766;53.194;5.532;2023-04-25T12:11:45;11.60;99.90
51557;DHT22;38766;53.194;5.532;2023-04-25T12:14:12;11.60;99.90
51557;DHT22;38766;53.194;5.532;2023-04-25T12:19:08;11.70;99.90
51557;DHT22;38766;53.194;5.532;2023-04-25T12:21:33;11.70;99.90
51557;DHT22;38766;53.194;5.532;2023-04-25T12:24:14;11.70;99.90
51557;DHT22;38766;53.194;5.532;2023-04-25T12:26:53;11.70;99.90
51557;DHT22;38766;53.194;5.532;2023-04-25T12:29:26;11.70;99.90
51557;DHT22;38766;53.194;5.532;2023-04-25T12:31:53;11.60;99.90
51557;DHT22;38766;53.194;5.532;2023-04-25T12:34:19;11.50;99.90
51557;DHT22;38766;53.194;5.532;2023-04-25T12:36:45;11.40;99.90
51557;DHT22;38766;53.194;5.532;2023-04-25T12:39:18;11.30;99.90
51557;DHT22;38766;53.194;5.532;2023-04-25T12:41:48;11.30;99.90
51557;DHT22;38766;53.194;5.532;2023-04-25T12:44:14;11.20;99.90
51557;DHT22;38766;53.194;5.532;2023-04-25T12:46:40;11.30;99.90
51557;DHT22;38766;53.194;5.532;2023-04-25T12:49:07;11.20;99.90
51557;DHT22;38766;53.194;5.532;2023-04-25T12:51:34;11.20;99.90
51557;DHT22;38766;53.194;5.532;2023-04-25T12:54:01;11.10;99.90
51557;DHT22;38766;53.194;5.532;2023-04-25T12:56:28;11.10;99.90
51557;DHT22;38766;53.194;5.532;2023-04-25T12:58:54;11.10;99.90
51557;DHT22;38766;53.194;5.532;2023-04-25T13:01:23;11.00;99.90
51557;DHT22;38766;53.194;5.532;2023-04-25T13:03:49;10.90;99.90
51557;DHT22;38766;53.194;5.532;2023-04-25T13:06:17;10.80;99.90
51557;DHT22;38766;53.194;5.532;2023-04-25T13:08:43;10.80;99.90
51557;DHT22;38766;53.194;5.532;2023-04-25T13:11:09;10.80;99.90
51557;DHT22;38766;53.194;5.532;2023-04-25T13:13:35;10.90;99.90
51557;DHT22;38766;53.194;5.532;2023-04-25T13:16:01;11.10;99.90
51557;DHT22;38766;53.194;5.532;2023-04-25T13:18:30;11.20;99.90
51557;DHT22;38766;53.194;5.532;2023-04-25T13:20:57;11.30;99.90
51557;DHT22;38766;53.194;5.532;2023-04-25T13:23:25;11.30;99.90
51557;DHT22;38766;53.194;5.532;2023-04-25T13:25:51;11.30;99.90
51557;DHT22;38766;53.194;5.532;2023-04-25T13:28:17;11.40;99.90
51557;DHT22;38766;53.194;5.532;2023-04-25T13:30:43;11.50;99.90
51557;DHT22;38766;53.194;5.532;2023-04-25T13:33:09;11.60;99.90
51557;DHT22;38766;53.194;5.532;2023-04-25T13:35:36;11.70;99.90
51557;DHT22;38766;53.194;5.532;2023-04-25T13:38:02;11.80;99.90
51557;DHT22;38766;53.194;5.532;2023-04-25T13:40:28;11.90;99.90
51557;DHT22;38766;53.194;5.532;2023-04-25T13:42:55;12.00;99.90
51557;DHT22;38766;53.194;5.532;2023-04-25T13:45:21;11.90;99.90
51557;DHT22;38766;53.194;5.532;2023-04-25T13:47:46;11.80;99.90
51557;DHT22;38766;53.194;5.532;2023-04-25T13:50:12;11.70;99.90
51557;DHT22;38766;53.194;5.532;2023-04-25T13:52:39;11.80;99.90
51557;DHT22;38766;53.194;5.532;2023-04-25T13:55:06;11.90;99.90
51557;DHT22;38766;53.194;5.532;2023-04-25T13:57:33;12.00;99.90
51557;DHT22;38766;53.194;5.532;2023-04-25T13:59:59;12.00;99.90
51557;DHT22;38766;53.194;5.532;2023-04-25T14:02:25;11.90;99.90
51557;DHT22;38766;53.194;5.532;2023-04-25T14:04:51;11.90;99.90
51557;DHT22;38766;53.194;5.532;2023-04-25T14:07:17;12.00;99.90
51557;DHT22;38766;53.194;5.532;2023-04-25T14:09:44;12.00;99.90
51557;DHT22;38766;53.194;5.532;2023-04-25T14:12:10;12.10;99.90
51557;DHT22;38766;53.194;5.532;2023-04-25T14:14:36;12.10;99.90
51557;DHT22;38766;53.194;5.532;2023-04-25T14:17:03;11.90;99.90
51557;DHT22;38766;53.194;5.532;2023-04-25T14:19:29;11.70;99.90
51557;DHT22;38766;53.194;5.532;2023-04-25T14:21:55;11.50;99.90
51557;DHT22;38766;53.194;5.532;2023-04-25T14:24:21;11.40;99.90
51557;DHT22;38766;53.194;5.532;2023-04-25T14:26:47;11.10;99.90
51557;DHT22;38766;53.194;5.532;2023-04-25T14:29:12;10.90;99.90
51557;DHT22;38766;53.194;5.532;2023-04-25T14:31:39;10.70;99.90
51557;DHT22;38766;53.194;5.532;2023-04-25T14:34:05;10.40;99.90
51557;DHT22;38766;53.194;5.532;2023-04-25T14:36:31;10.30;99.90
51557;DHT22;38766;53.194;5.532;2023-04-25T14:38:58;10.10;99.90
51557;DHT22;38766;53.194;5.532;2023-04-25T14:41:24;10.20;99.90
51557;DHT22;38766;53.194;5.532;2023-04-25T14:43:50;10.30;99.90
51557;DHT22;38766;53.194;5.532;2023-04-25T14:46:16;10.30;99.90
51557;DHT22;38766;53.194;5.532;2023-04-25T14:48:42;10.40;99.90
51557;DHT22;38766;53.194;5.532;2023-04-25T14:51:08;10.50;99.90
51557;DHT22;38766;53.194;5.532;2023-04-25T14:53:34;10.70;99.90
51557;DHT22;38766;53.194;5.532;2023-04-25T14:56:00;10.80;99.90
51557;DHT22;38766;53.194;5.532;2023-04-25T14:58:26;10.90;99.90
51557;DHT22;38766;53.194;5.532;2023-04-25T15:00:52;11.00;99.90
51557;DHT22;38766;53.194;5.532;2023-04-25T15:03:18;11.00;99.90
51557;DHT22;38766;53.194;5.532;2023-04-25T15:05:43;11.00;99.90
51557;DHT22;38766;53.194;5.532;2023-04-25T15:08:09;11.00;99.90
51557;DHT22;38766;53.194;5.532;2023-04-25T15:10:38;11.00;99.90
51557;DHT22;38766;53.194;5.532;2023-04-25T15:13:04;10.80;99.90
51557;DHT22;38766;53.194;5.532;2023-04-25T15:15:29;10.70;99.90
51557;DHT22;38766;53.194;5.532;2023-04-25T15:17:55;10.60;99.90
51557;DHT22;38766;53.194;5.532;2023-04-25T15:20:21;10.60;99.90
51557;DHT22;38766;53.194;5.532;2023-04-25T15:22:47;10.60;99.90
51557;DHT22;38766;53.194;5.532;2023-04-25T15:25:15;10.80;99.90
51557;DHT22;38766;53.194;5.532;2023-04-25T15:27:43;10.80;99.90
51557;DHT22;38766;53.194;5.532;2023-04-25T15:30:16;10.90;99.90
51557;DHT22;38766;53.194;5.532;2023-04-25T15:32:45;10.90;99.90
51557;DHT22;38766;53.194;5.532;2023-04-25T15:35:13;10.90;99.90
51557;DHT22;38766;53.194;5.532;2023-04-25T15:37:38;11.00;99.90
51557;DHT22;38766;53.194;5.532;2023-04-25T15:40:08;11.00;99.90
51557;DHT22;38766;53.194;5.532;2023-04-25T15:42:36;11.10;99.90
51557;DHT22;38766;53.194;5.532;2023-04-25T15:45:06;11.10;99.90
51557;DHT22;38766;53.194;5.532;2023-04-25T15:47:34;11.10;99.90
51557;DHT22;38766;53.194;5.532;2023-04-25T15:50:00;11.00;99.90